createdAt,value
2017-09-30T00:04:36.428Z,68.78
2017-09-30T00:09:39.391Z,69.05
2017-09-30T00:14:43.323Z,69.30
2017-09-30T00:19:47.591Z,69.37
2017-09-30T00:24:50.577Z,69.59
2017-09-30T00:29:54.489Z,69.94
2017-09-30T00:34:57.255Z,70.07
2017-09-30T00:40:01.313Z,71.31
2017-09-30T00:45:08.111Z,72.79
2017-09-30T00:50:11.430Z,73.64
2017-09-30T00:55:24.612Z,74.39
2017-09-30T01:00:31.865Z,74.97
2017-09-30T01:05:39.681Z,75.55
2017-09-30T01:10:48.598Z,75.75
2017-09-30T01:15:53.647Z,76.14
2017-09-30T01:21:02.317Z,77.53
2017-09-30T01:26:05.747Z,77.25
2017-09-30T01:31:09.365Z,77.94
2017-09-30T01:36:12.575Z,78.09
2017-09-30T01:41:15.776Z,78.10
2017-09-30T01:46:19.793Z,77.82
2017-09-30T01:51:24.053Z,77.98
2017-09-30T01:56:28.851Z,78.94
2017-09-30T02:01:32.032Z,79.40
2017-09-30T02:06:34.500Z,79.21
2017-09-30T02:11:44.045Z,79.04
2017-09-30T02:16:46.765Z,78.89
2017-09-30T02:21:49.295Z,78.16
2017-09-30T02:26:52.005Z,77.97
2017-09-30T02:31:54.710Z,77.84
2017-09-30T02:36:57.308Z,77.84
2017-09-30T02:41:59.869Z,77.72
2017-09-30T02:47:02.481Z,77.73
2017-09-30T02:52:05.915Z,77.79
2017-09-30T02:57:08.483Z,77.79
2017-09-30T03:02:11.058Z,77.86
2017-09-30T03:07:13.312Z,77.93
2017-09-30T03:12:15.992Z,77.91
2017-09-30T03:17:18.639Z,78.15
2017-09-30T03:22:21.098Z,78.12
2017-09-30T03:27:23.693Z,77.89
2017-09-30T03:32:25.801Z,77.73
2017-09-30T03:37:30.982Z,77.47
2017-09-30T03:42:34.721Z,77.41
2017-09-30T03:47:37.400Z,77.41
2017-09-30T03:52:40.602Z,77.38
2017-09-30T03:57:42.912Z,77.30
2017-09-30T04:02:45.153Z,77.21
2017-09-30T04:07:47.710Z,77.12
2017-09-30T04:12:50.049Z,77.16
2017-09-30T04:17:52.172Z,77.18
2017-09-30T04:22:54.848Z,78.39
2017-09-30T04:27:57.454Z,78.79
2017-09-30T04:32:59.740Z,79.60
2017-09-30T04:38:02.826Z,79.76
2017-09-30T04:43:05.995Z,78.97
2017-09-30T04:48:08.775Z,79.78
2017-09-30T04:53:11.261Z,79.73
2017-09-30T04:58:13.340Z,79.20
2017-09-30T05:03:15.847Z,78.82
2017-09-30T05:08:18.348Z,78.72
2017-09-30T05:13:20.646Z,79.13
2017-09-30T05:18:23.001Z,79.00
2017-09-30T05:23:25.763Z,78.74
2017-09-30T05:28:29.164Z,78.56
2017-09-30T05:33:37.433Z,78.76
2017-09-30T05:38:40.354Z,78.85
2017-09-30T05:43:42.968Z,78.59
2017-09-30T05:48:46.144Z,78.72
2017-09-30T05:53:49.519Z,78.53
2017-09-30T05:58:52.723Z,78.63
2017-09-30T06:04:02.236Z,78.66
2017-09-30T06:09:04.345Z,78.51
2017-09-30T06:14:06.947Z,78.65
2017-09-30T06:19:10.287Z,78.83
2017-09-30T06:24:12.963Z,78.57
2017-09-30T06:29:15.366Z,78.79
2017-09-30T06:34:18.053Z,78.79
2017-09-30T06:39:20.678Z,78.54
2017-09-30T06:44:24.271Z,78.47
2017-09-30T06:49:26.923Z,78.00
2017-09-30T06:54:31.797Z,78.44
2017-09-30T06:59:34.885Z,79.43
2017-09-30T07:04:39.731Z,78.47
2017-09-30T07:09:46.838Z,78.02
2017-09-30T07:14:51.093Z,77.62
2017-09-30T07:19:57.357Z,78.00
2017-09-30T07:25:01.667Z,77.24
2017-09-30T07:30:04.340Z,76.44
2017-09-30T07:35:08.556Z,76.27
2017-09-30T07:40:10.797Z,75.96
2017-09-30T07:45:13.070Z,75.40
2017-09-30T07:50:15.572Z,75.12
2017-09-30T07:55:18.654Z,74.68
2017-09-30T08:00:21.333Z,74.79
2017-09-30T08:05:23.707Z,75.01
2017-09-30T08:10:26.394Z,74.73
2017-09-30T08:15:29.059Z,75.12
2017-09-30T08:20:31.562Z,74.74
2017-09-30T08:25:34.196Z,74.29
2017-09-30T08:30:36.375Z,74.55
2017-09-30T08:35:39.047Z,74.45
2017-09-30T08:40:41.666Z,74.74
2017-09-30T08:45:45.143Z,75.01
2017-09-30T08:50:47.838Z,74.34
2017-09-30T08:55:51.423Z,73.49
2017-09-30T09:00:54.482Z,72.67
2017-09-30T09:05:58.626Z,72.66
2017-09-30T09:11:02.271Z,73.07
2017-09-30T09:16:06.158Z,72.94
2017-09-30T09:21:09.939Z,73.08
2017-09-30T09:26:13.865Z,73.09
2017-09-30T09:31:17.218Z,73.01
2017-09-30T09:36:21.340Z,72.93
2017-09-30T09:41:25.045Z,72.98
2017-09-30T09:46:28.943Z,72.89
2017-09-30T09:51:32.228Z,72.85
2017-09-30T09:56:35.512Z,73.02
2017-09-30T10:01:37.700Z,72.61
2017-09-30T10:06:42.295Z,71.88
2017-09-30T10:11:45.987Z,71.26
2017-09-30T10:16:52.225Z,71.53
2017-09-30T10:22:00.074Z,71.63
2017-09-30T10:27:04.246Z,72.13
2017-09-30T10:32:07.219Z,71.69
2017-09-30T10:37:10.631Z,71.42
2017-09-30T10:42:13.898Z,70.83
2017-09-30T10:47:16.041Z,70.66
2017-09-30T10:52:18.936Z,69.54
2017-09-30T10:57:21.716Z,68.87
2017-09-30T11:02:24.414Z,68.20
2017-09-30T11:07:27.025Z,68.66
2017-09-30T11:12:29.699Z,68.38
2017-09-30T11:17:32.841Z,68.26
2017-09-30T11:22:35.501Z,68.31
2017-09-30T11:27:37.944Z,69.02
2017-09-30T11:32:40.536Z,69.49
2017-09-30T11:37:44.056Z,70.22
2017-09-30T11:42:47.506Z,72.13
2017-09-30T11:47:50.221Z,72.88
2017-09-30T11:52:52.320Z,73.20
2017-09-30T11:57:55.078Z,73.08
2017-09-30T12:02:59.613Z,73.54
2017-09-30T12:08:04.251Z,73.99
2017-09-30T12:13:06.751Z,74.16
2017-09-30T12:18:09.419Z,74.42
2017-09-30T12:23:12.017Z,74.07
2017-09-30T12:28:14.739Z,75.01
2017-09-30T12:33:19.964Z,75.38
2017-09-30T12:38:23.519Z,75.49
2017-09-30T12:43:26.252Z,75.95
2017-09-30T12:48:28.724Z,75.70
2017-09-30T12:53:31.356Z,76.38
2017-09-30T12:58:34.058Z,76.14
2017-09-30T13:03:36.457Z,75.89
2017-09-30T13:08:39.037Z,76.64
2017-09-30T13:13:41.284Z,77.47
2017-09-30T13:18:43.822Z,77.27
2017-09-30T13:23:46.353Z,77.25
2017-09-30T13:28:48.954Z,77.15
2017-09-30T13:33:51.539Z,76.52
2017-09-30T13:38:54.274Z,76.66
2017-09-30T13:43:56.937Z,75.13
2017-09-30T13:48:59.364Z,74.93
2017-09-30T13:54:02.081Z,75.46
2017-09-30T13:59:04.669Z,75.72
2017-09-30T14:04:07.502Z,75.64
2017-09-30T14:09:09.824Z,75.34
2017-09-30T14:14:12.163Z,75.67
2017-09-30T14:19:14.714Z,76.47
2017-09-30T14:24:18.083Z,77.25
2017-09-30T14:29:20.431Z,77.08
2017-09-30T14:34:23.027Z,77.37
2017-09-30T14:39:25.664Z,77.70
2017-09-30T14:44:28.100Z,78.65
2017-09-30T14:49:30.838Z,78.70
2017-09-30T14:54:33.470Z,78.97
2017-09-30T14:59:36.438Z,78.46
2017-09-30T15:04:39.842Z,78.64
2017-09-30T15:09:42.532Z,78.52
2017-09-30T15:14:45.150Z,78.37
2017-09-30T15:19:47.578Z,77.75
2017-09-30T15:24:49.974Z,77.80
2017-09-30T15:29:52.588Z,78.02
2017-09-30T15:34:55.045Z,78.23
2017-09-30T15:39:57.550Z,78.64
2017-09-30T15:44:59.747Z,78.35
2017-09-30T15:50:02.457Z,77.84
2017-09-30T15:55:05.937Z,77.71
2017-09-30T16:00:08.416Z,78.10
2017-09-30T16:05:14.414Z,78.76
2017-09-30T16:10:17.162Z,78.36
2017-09-30T16:15:19.640Z,78.09
2017-09-30T16:20:22.261Z,77.91
2017-09-30T16:25:26.158Z,78.21
2017-09-30T16:30:32.828Z,78.70
2017-09-30T16:35:41.385Z,76.56
2017-09-30T16:40:44.654Z,76.43
2017-09-30T16:45:48.063Z,77.06
2017-09-30T16:50:50.587Z,76.72
2017-09-30T16:55:53.220Z,76.26
2017-09-30T17:00:55.559Z,77.54
2017-09-30T17:05:57.880Z,77.76
2017-09-30T17:11:01.207Z,77.27
2017-09-30T17:16:03.415Z,77.50
2017-09-30T17:21:06.799Z,77.54
2017-09-30T17:26:10.049Z,78.18
2017-09-30T17:31:12.659Z,77.75
2017-09-30T17:36:15.310Z,78.21
2017-09-30T17:41:17.739Z,77.43
2017-09-30T17:46:27.757Z,78.00
2017-09-30T17:51:34.651Z,77.57
2017-09-30T17:56:42.606Z,78.03
2017-09-30T18:01:48.990Z,77.68
2017-09-30T18:06:51.647Z,76.18
2017-09-30T18:11:55.124Z,77.45
2017-09-30T18:16:58.518Z,77.29
2017-09-30T18:22:01.131Z,77.40
2017-09-30T18:27:03.781Z,77.75
2017-09-30T18:32:06.298Z,77.46
2017-09-30T18:37:09.064Z,76.84
2017-09-30T18:42:11.797Z,77.05
2017-09-30T18:47:14.200Z,77.22
2017-09-30T18:52:16.642Z,77.23
2017-09-30T18:57:19.232Z,77.27
2017-09-30T19:02:21.473Z,77.31
2017-09-30T19:07:23.767Z,77.45
2017-09-30T19:12:32.120Z,77.37
2017-09-30T19:17:36.112Z,77.33
2017-09-30T19:22:44.616Z,77.25
2017-09-30T19:27:47.422Z,77.45
2017-09-30T19:32:49.919Z,77.68
2017-09-30T19:37:53.263Z,77.54
2017-09-30T19:42:55.690Z,77.69
2017-09-30T19:47:58.170Z,77.91
2017-09-30T19:53:00.790Z,77.40
2017-09-30T19:58:03.397Z,77.06
2017-09-30T20:03:06.063Z,76.86
2017-09-30T20:08:08.423Z,76.88
2017-09-30T20:13:10.736Z,76.77
2017-09-30T20:18:14.687Z,76.73
2017-09-30T20:23:17.253Z,76.80
2017-09-30T20:28:19.580Z,77.10
2017-09-30T20:33:22.127Z,76.96
2017-09-30T20:38:24.780Z,76.75
2017-09-30T20:43:27.321Z,77.01
2017-09-30T20:48:30.679Z,77.17
2017-09-30T20:53:32.975Z,77.17
2017-09-30T20:58:35.222Z,77.29
2017-09-30T21:03:38.041Z,77.00
2017-09-30T21:08:40.632Z,77.33
2017-09-30T21:13:44.735Z,77.36
2017-09-30T21:18:48.196Z,77.38
2017-09-30T21:23:50.623Z,77.28
2017-09-30T21:28:52.992Z,77.48
2017-09-30T21:33:55.516Z,77.20
2017-09-30T21:39:05.144Z,77.24
2017-09-30T21:44:07.695Z,77.67
2017-09-30T21:49:10.253Z,77.54
2017-09-30T21:54:12.588Z,77.63
2017-09-30T21:59:15.765Z,77.57
2017-09-30T22:04:19.062Z,77.34
2017-09-30T22:09:21.998Z,77.28
2017-09-30T22:14:24.494Z,77.42
2017-09-30T22:19:27.127Z,77.56
2017-09-30T22:24:30.262Z,77.36
2017-09-30T22:29:32.746Z,77.26
2017-09-30T22:34:35.325Z,76.99
2017-09-30T22:39:37.607Z,76.97
2017-09-30T22:44:39.879Z,76.75
2017-09-30T22:49:42.425Z,76.90
2017-09-30T22:54:44.733Z,76.95
2017-09-30T22:59:47.262Z,76.69
2017-09-30T23:04:49.890Z,76.58
2017-09-30T23:09:52.592Z,76.73
2017-09-30T23:14:55.100Z,76.80
2017-09-30T23:19:58.102Z,76.81
2017-09-30T23:25:00.190Z,76.73
2017-09-30T23:30:02.568Z,76.71
2017-09-30T23:35:05.168Z,76.68
2017-09-30T23:40:07.772Z,76.74
2017-09-30T23:45:10.003Z,76.67
2017-09-30T23:50:12.354Z,76.59
2017-09-30T23:55:15.025Z,76.64
